createdAt,value
2023-05-23T00:00:55.555Z,15.90
2023-05-23T00:04:18.566Z,15.90
2023-05-23T00:07:40.211Z,16.00
2023-05-23T00:11:01.869Z,15.90
2023-05-23T00:14:23.492Z,16.00
2023-05-23T00:17:45.355Z,16.00
2023-05-23T00:21:08.330Z,16.10
2023-05-23T00:24:29.947Z,16.20
2023-05-23T00:27:51.550Z,16.20
2023-05-23T00:31:13.275Z,16.20
2023-05-23T00:34:34.919Z,16.20
2023-05-23T00:37:57.888Z,16.10
2023-05-23T00:41:19.520Z,16.10
2023-05-23T00:44:41.111Z,16.10
2023-05-23T00:48:02.955Z,16.20
2023-05-23T00:51:24.615Z,16.30
2023-05-23T00:54:47.598Z,16.30
2023-05-23T00:58:09.255Z,16.40
2023-05-23T01:01:31.041Z,16.50
2023-05-23T01:04:52.880Z,16.60
2023-05-23T01:08:14.499Z,16.60
2023-05-23T01:11:42.409Z,16.60
2023-05-23T01:15:05.428Z,16.70
2023-05-23T01:18:29.810Z,16.70
2023-05-23T01:21:53.269Z,16.70
2023-05-23T01:25:23.650Z,16.70
2023-05-23T01:28:48.596Z,16.70
2023-05-23T01:32:11.819Z,16.70
2023-05-23T01:35:33.644Z,16.60
2023-05-23T01:38:55.254Z,16.50
2023-05-23T01:42:16.932Z,16.30
2023-05-23T01:45:40.276Z,16.30
2023-05-23T01:49:03.638Z,16.20
2023-05-23T01:52:25.285Z,16.20
2023-05-23T01:55:47.215Z,16.20
2023-05-23T01:59:09.233Z,16.20
2023-05-23T02:02:32.272Z,16.20
2023-05-23T02:05:53.993Z,16.30
2023-05-23T02:09:15.657Z,16.30
2023-05-23T02:12:37.279Z,16.30
2023-05-23T02:15:58.885Z,16.40
2023-05-23T02:19:21.935Z,16.40
2023-05-23T02:22:43.620Z,16.40
2023-05-23T02:26:05.297Z,16.40
2023-05-23T02:29:26.933Z,16.40
2023-05-23T02:32:48.583Z,16.30
2023-05-23T02:36:11.582Z,16.20
2023-05-23T02:39:34.922Z,16.10
2023-05-23T02:42:56.549Z,16.00
2023-05-23T02:46:18.142Z,15.90
2023-05-23T02:49:39.810Z,15.80
2023-05-23T02:53:03.117Z,15.70
2023-05-23T02:56:24.744Z,15.60
2023-05-23T02:59:46.373Z,15.50
2023-05-23T03:03:08.107Z,15.50
2023-05-23T03:06:29.940Z,15.40
2023-05-23T03:09:53.014Z,15.40
2023-05-23T03:13:14.873Z,15.50
2023-05-23T03:16:36.641Z,15.50
2023-05-23T03:19:58.623Z,15.60
2023-05-23T03:23:20.383Z,15.60
2023-05-23T03:26:43.459Z,15.60
2023-05-23T03:30:05.741Z,15.60
2023-05-23T03:33:27.556Z,15.60
2023-05-23T03:36:49.308Z,15.50
2023-05-23T03:40:11.064Z,15.60
2023-05-23T03:43:34.162Z,15.70
2023-05-23T03:46:55.917Z,15.80
2023-05-23T03:50:17.672Z,15.80
2023-05-23T03:53:39.433Z,15.90
2023-05-23T03:57:01.181Z,16.00
2023-05-23T04:00:24.418Z,16.10
2023-05-23T04:03:46.271Z,16.20
2023-05-23T04:07:08.055Z,16.20
2023-05-23T04:10:29.784Z,16.30
2023-05-23T04:13:51.765Z,16.30
2023-05-23T04:17:14.867Z,16.40
2023-05-23T04:20:36.622Z,16.40
2023-05-23T04:23:58.278Z,16.40
2023-05-23T04:27:19.919Z,16.50
2023-05-23T04:30:42.030Z,16.50
2023-05-23T04:34:05.013Z,16.60
2023-05-23T04:37:26.654Z,16.60
2023-05-23T04:40:48.654Z,16.70
2023-05-23T04:44:10.264Z,16.70
2023-05-23T04:47:31.897Z,16.80
2023-05-23T04:50:54.906Z,16.80
2023-05-23T04:54:16.533Z,16.70
2023-05-23T04:57:38.297Z,16.70
2023-05-23T05:00:59.934Z,16.80
2023-05-23T05:04:21.643Z,16.70
2023-05-23T05:07:44.656Z,16.80
2023-05-23T05:11:06.258Z,16.70
2023-05-23T05:14:28.050Z,16.70
2023-05-23T05:17:50.113Z,16.70
2023-05-23T05:21:11.846Z,16.70
2023-05-23T05:24:34.841Z,16.70
2023-05-23T05:27:56.441Z,16.80
2023-05-23T05:31:18.227Z,17.00
2023-05-23T05:34:39.960Z,17.10
2023-05-23T05:38:01.600Z,17.10
2023-05-23T05:41:24.584Z,17.20
2023-05-23T05:44:46.843Z,17.30
2023-05-23T05:48:08.568Z,17.30
2023-05-23T05:51:30.305Z,17.40
2023-05-23T05:54:51.961Z,17.60
2023-05-23T05:58:14.935Z,17.60
2023-05-23T06:01:36.569Z,17.50
2023-05-23T06:04:58.297Z,17.60
2023-05-23T06:08:20.124Z,17.80
2023-05-23T06:11:41.845Z,17.80
2023-05-23T06:15:05.428Z,17.90
2023-05-23T06:18:27.077Z,17.90
2023-05-23T06:21:48.854Z,18.00
2023-05-23T06:25:10.479Z,18.00
2023-05-23T06:28:32.094Z,17.90
2023-05-23T06:31:55.118Z,17.90
2023-05-23T06:35:16.755Z,17.80
2023-05-23T06:38:38.414Z,17.80
2023-05-23T06:42:00.031Z,17.70
2023-05-23T06:45:21.647Z,17.70
2023-05-23T06:48:44.608Z,17.80
2023-05-23T06:52:06.224Z,17.80
2023-05-23T06:55:27.858Z,17.80
2023-05-23T06:58:49.713Z,17.80
2023-05-23T07:02:11.378Z,17.80
2023-05-23T07:05:34.352Z,17.90
2023-05-23T07:08:56.042Z,18.00
2023-05-23T07:12:17.677Z,17.90
2023-05-23T07:15:39.273Z,17.90
2023-05-23T07:19:01.247Z,17.90
2023-05-23T07:22:24.236Z,17.80
2023-05-23T07:26:00.525Z,17.80
2023-05-23T07:29:23.396Z,17.60
2023-05-23T07:32:45.087Z,17.50
2023-05-23T07:36:06.933Z,17.20
2023-05-23T07:39:29.872Z,17.10
2023-05-23T07:42:51.495Z,16.90
2023-05-23T07:46:13.138Z,16.80
2023-05-23T07:49:34.764Z,16.80
2023-05-23T07:52:56.402Z,16.80
2023-05-23T07:56:19.366Z,16.80
2023-05-23T07:59:40.991Z,16.80
2023-05-23T08:03:02.728Z,16.80
2023-05-23T08:06:24.371Z,17.00
2023-05-23T08:09:46.043Z,17.00
2023-05-23T08:13:10.196Z,17.20
2023-05-23T08:16:31.981Z,17.50
2023-05-23T08:19:53.729Z,17.50
2023-05-23T08:23:15.378Z,17.40
2023-05-23T08:26:37.050Z,17.30
2023-05-23T08:30:00.047Z,17.20
2023-05-23T08:33:21.753Z,17.20
2023-05-23T08:36:43.396Z,17.30
2023-05-23T08:40:07.151Z,17.40
2023-05-23T08:43:28.849Z,17.40
2023-05-23T08:46:53.182Z,17.30
2023-05-23T08:50:15.572Z,17.20
2023-05-23T08:53:38.300Z,17.10
2023-05-23T08:56:59.965Z,17.00
2023-05-23T09:00:22.334Z,17.10
2023-05-23T09:03:45.300Z,17.10
2023-05-23T09:07:07.144Z,17.20
2023-05-23T09:10:28.762Z,17.40
2023-05-23T09:13:50.433Z,17.50
2023-05-23T09:17:15.717Z,17.50
2023-05-23T09:20:40.357Z,17.40
2023-05-23T09:24:02.140Z,17.30
2023-05-23T09:27:23.839Z,17.30
2023-05-23T09:30:45.475Z,17.30
2023-05-23T09:34:07.067Z,17.30
2023-05-23T09:37:34.443Z,17.40
2023-05-23T09:40:56.131Z,17.60
2023-05-23T09:44:22.693Z,17.60
2023-05-23T09:47:49.316Z,17.60
2023-05-23T09:51:10.989Z,17.60
2023-05-23T09:54:34.093Z,17.70
2023-05-23T09:57:58.442Z,17.80
2023-05-23T10:01:21.356Z,18.00
2023-05-23T10:04:43.466Z,18.20
2023-05-23T10:08:07.795Z,18.40
2023-05-23T10:11:50.256Z,18.70
2023-05-23T10:15:14.109Z,18.70
2023-05-23T10:18:39.713Z,18.70
2023-05-23T10:22:03.556Z,18.60
2023-05-23T10:25:25.551Z,18.60
2023-05-23T10:28:48.228Z,18.50
2023-05-23T10:32:12.040Z,18.20
2023-05-23T10:35:41.143Z,18.30
2023-05-23T10:39:05.897Z,18.40
2023-05-23T10:42:35.134Z,18.60
2023-05-23T10:45:56.842Z,19.00
2023-05-23T10:49:19.898Z,19.20
2023-05-23T10:52:42.118Z,19.60
2023-05-23T10:56:07.418Z,19.80
2023-05-23T10:59:29.114Z,19.80
2023-05-23T11:02:53.891Z,19.90
2023-05-23T11:06:29.715Z,19.80
2023-05-23T11:10:03.858Z,19.70
2023-05-23T11:13:25.773Z,20.10
2023-05-23T11:16:47.462Z,20.50
2023-05-23T11:20:10.177Z,20.90
2023-05-23T11:23:41.214Z,21.00
2023-05-23T11:27:02.853Z,21.10
2023-05-23T11:30:28.522Z,20.90
2023-05-23T11:33:50.634Z,20.90
2023-05-23T11:37:12.722Z,21.00
2023-05-23T11:40:36.486Z,21.20
2023-05-23T11:43:58.205Z,20.90
2023-05-23T11:47:20.250Z,20.80
2023-05-23T11:50:45.798Z,20.90
2023-05-23T11:54:07.448Z,20.90
2023-05-23T11:57:30.400Z,21.10
2023-05-23T12:00:55.042Z,21.10
2023-05-23T12:04:17.129Z,21.20
2023-05-23T12:07:40.456Z,21.10
2023-05-23T12:11:02.555Z,21.20
2023-05-23T12:14:28.791Z,21.00
2023-05-23T12:17:50.492Z,21.00
2023-05-23T12:21:12.143Z,21.10
2023-05-23T12:24:34.229Z,21.10
2023-05-23T12:27:56.522Z,20.70
2023-05-23T12:31:21.096Z,20.90
2023-05-23T12:34:42.821Z,20.80
2023-05-23T12:38:06.100Z,20.80
2023-05-23T12:41:27.741Z,20.70
2023-05-23T12:44:51.133Z,20.70
2023-05-23T12:48:14.123Z,20.70
2023-05-23T12:51:35.811Z,20.50
2023-05-23T12:54:57.434Z,20.60
2023-05-23T12:58:19.169Z,20.50
2023-05-23T13:01:40.910Z,20.20
2023-05-23T13:05:04.236Z,20.20
2023-05-23T13:08:26.218Z,20.00
2023-05-23T13:11:47.841Z,20.00
2023-05-23T13:15:09.950Z,20.20
2023-05-23T13:18:31.561Z,20.50
2023-05-23T13:21:54.500Z,20.70
2023-05-23T13:25:16.234Z,21.00
2023-05-23T13:28:37.917Z,21.10
2023-05-23T13:31:59.803Z,21.30
2023-05-23T13:35:21.440Z,21.30
2023-05-23T13:38:44.403Z,21.30
2023-05-23T13:42:06.530Z,21.10
2023-05-23T13:45:28.144Z,21.00
2023-05-23T13:48:49.771Z,21.10
2023-05-23T13:52:11.674Z,21.20
2023-05-23T13:55:34.645Z,20.90
2023-05-23T13:58:56.675Z,20.70
2023-05-23T14:02:18.596Z,20.50
2023-05-23T14:05:40.213Z,20.40
2023-05-23T14:09:02.325Z,20.30
2023-05-23T14:12:25.903Z,20.10
2023-05-23T14:15:47.556Z,19.90
2023-05-23T14:19:09.243Z,19.60
2023-05-23T14:22:31.006Z,19.70
2023-05-23T14:25:52.668Z,19.80
2023-05-23T14:29:15.730Z,20.00
2023-05-23T14:32:37.447Z,20.30
2023-05-23T14:35:59.199Z,20.50
2023-05-23T14:39:20.834Z,20.50
2023-05-23T14:42:42.550Z,20.50
2023-05-23T14:46:05.599Z,20.70
2023-05-23T14:49:27.219Z,20.90
2023-05-23T14:52:48.832Z,21.00
2023-05-23T14:56:10.444Z,21.00
2023-05-23T14:59:32.095Z,21.00
2023-05-23T15:02:55.113Z,20.80
2023-05-23T15:06:16.761Z,20.60
2023-05-23T15:09:38.388Z,20.40
2023-05-23T15:13:00.033Z,20.30
2023-05-23T15:16:21.792Z,20.20
2023-05-23T15:19:44.887Z,20.00
2023-05-23T15:23:06.538Z,20.00
2023-05-23T15:26:28.231Z,20.00
2023-05-23T15:29:49.855Z,20.00
2023-05-23T15:33:11.621Z,20.00
2023-05-23T15:36:34.668Z,20.00
2023-05-23T15:39:56.348Z,20.10
2023-05-23T15:43:17.949Z,20.40
2023-05-23T15:46:39.604Z,20.50
2023-05-23T15:50:01.834Z,20.40
2023-05-23T15:53:24.937Z,20.30
2023-05-23T15:56:46.557Z,20.20
2023-05-23T16:00:08.860Z,20.10
2023-05-23T16:03:30.486Z,20.00
2023-05-23T16:06:52.137Z,20.00
2023-05-23T16:10:15.095Z,20.00
2023-05-23T16:13:36.736Z,19.90
2023-05-23T16:16:58.396Z,19.80
2023-05-23T16:20:20.030Z,19.50
2023-05-23T16:23:41.652Z,19.40
2023-05-23T16:27:04.894Z,19.40
2023-05-23T16:30:26.699Z,19.50
2023-05-23T16:33:48.365Z,19.50
2023-05-23T16:37:10.148Z,19.50
2023-05-23T16:40:31.765Z,19.40
2023-05-23T16:43:54.724Z,19.30
2023-05-23T16:47:16.653Z,19.20
2023-05-23T16:50:38.334Z,19.30
2023-05-23T16:53:59.986Z,19.20
2023-05-23T16:57:21.602Z,19.20
2023-05-23T17:00:44.542Z,19.10
2023-05-23T17:04:06.162Z,19.00
2023-05-23T17:07:27.758Z,18.80
2023-05-23T17:10:49.385Z,18.70
2023-05-23T17:14:11.010Z,18.60
2023-05-23T17:17:34.175Z,18.60
2023-05-23T17:20:55.855Z,18.50
2023-05-23T17:24:17.556Z,18.50
2023-05-23T17:27:39.187Z,18.50
2023-05-23T17:31:00.919Z,18.40
2023-05-23T17:34:23.971Z,18.20
2023-05-23T17:37:45.602Z,18.10
2023-05-23T17:41:07.318Z,17.90
2023-05-23T17:44:28.929Z,17.80
2023-05-23T17:47:50.689Z,17.70
2023-05-23T17:51:13.940Z,17.50
2023-05-23T17:54:36.095Z,17.50
2023-05-23T17:57:57.747Z,17.40
2023-05-23T18:01:19.468Z,17.40
2023-05-23T18:04:41.483Z,17.40
2023-05-23T18:08:04.653Z,17.50
2023-05-23T18:11:26.331Z,17.50
2023-05-23T18:14:47.980Z,17.50
2023-05-23T18:18:09.643Z,17.50
2023-05-23T18:21:31.375Z,17.40
2023-05-23T18:24:54.352Z,17.30
2023-05-23T18:28:16.019Z,17.20
2023-05-23T18:31:37.662Z,17.10
2023-05-23T18:34:59.294Z,17.00
2023-05-23T18:38:20.957Z,17.00
2023-05-23T18:41:43.971Z,16.90
2023-05-23T18:45:06.226Z,16.90
2023-05-23T18:48:27.902Z,16.90
2023-05-23T18:51:49.526Z,16.80
2023-05-23T18:55:11.316Z,16.80
2023-05-23T18:58:34.330Z,16.70
2023-05-23T19:01:56.026Z,16.70
2023-05-23T19:05:17.724Z,16.60
2023-05-23T19:08:41.196Z,16.60
2023-05-23T19:12:03.304Z,16.50
2023-05-23T19:15:26.366Z,16.40
2023-05-23T19:18:48.460Z,16.40
2023-05-23T19:22:10.184Z,16.30
2023-05-23T19:25:31.813Z,16.30
2023-05-23T19:28:53.727Z,16.30
2023-05-23T19:32:16.848Z,16.30
2023-05-23T19:35:38.558Z,16.30
2023-05-23T19:39:00.262Z,16.30
2023-05-23T19:42:21.886Z,16.30
2023-05-23T19:45:43.567Z,16.20
2023-05-23T19:49:07.620Z,16.20
2023-05-23T19:52:29.231Z,16.10
2023-05-23T19:55:51.379Z,16.10
2023-05-23T19:59:13.811Z,16.10
2023-05-23T20:02:35.491Z,16.00
2023-05-23T20:05:58.498Z,16.00
2023-05-23T20:09:20.134Z,15.90
2023-05-23T20:12:41.770Z,15.80
2023-05-23T20:16:03.470Z,15.80
2023-05-23T20:19:25.180Z,15.70
2023-05-23T20:22:48.247Z,15.70
2023-05-23T20:26:09.922Z,15.60
2023-05-23T20:29:31.613Z,15.50
2023-05-23T20:32:53.386Z,15.50
2023-05-23T20:36:15.101Z,15.40
2023-05-23T20:39:38.070Z,15.30
2023-05-23T20:42:59.875Z,15.30
2023-05-23T20:46:21.737Z,15.20
2023-05-23T20:49:43.511Z,15.20
2023-05-23T20:53:05.280Z,15.10
2023-05-23T20:56:28.221Z,15.00
2023-05-23T20:59:49.914Z,15.00
2023-05-23T21:03:11.734Z,14.90
2023-05-23T21:06:33.440Z,14.80
2023-05-23T21:09:55.201Z,14.70
2023-05-23T21:13:18.355Z,14.60
2023-05-23T21:16:40.006Z,14.60
2023-05-23T21:20:01.766Z,14.50
2023-05-23T21:23:23.425Z,14.40
2023-05-23T21:26:45.056Z,14.40
2023-05-23T21:30:09.138Z,14.40
2023-05-23T21:33:30.760Z,14.40
2023-05-23T21:36:52.673Z,14.30
2023-05-23T21:40:14.407Z,14.30
2023-05-23T21:43:36.046Z,14.30
2023-05-23T21:46:59.079Z,14.30
2023-05-23T21:50:20.702Z,14.30
2023-05-23T21:53:42.313Z,14.20
2023-05-23T21:57:04.250Z,14.20
2023-05-23T22:00:26.190Z,14.10
2023-05-23T22:03:49.248Z,14.10
2023-05-23T22:07:10.919Z,14.00
2023-05-23T22:10:32.554Z,14.00
2023-05-23T22:13:54.175Z,13.90
2023-05-23T22:17:15.863Z,13.90
2023-05-23T22:20:38.814Z,13.90
2023-05-23T22:24:00.498Z,13.80
2023-05-23T22:27:22.521Z,13.80
2023-05-23T22:30:44.252Z,13.80
2023-05-23T22:34:06.161Z,13.70
2023-05-23T22:37:29.133Z,13.70
2023-05-23T22:40:50.827Z,13.70
2023-05-23T22:44:12.473Z,13.60
2023-05-23T22:47:34.228Z,13.60
2023-05-23T22:50:56.840Z,13.50
2023-05-23T22:54:19.817Z,13.40
2023-05-23T22:57:41.429Z,13.40
2023-05-23T23:01:03.147Z,13.40
2023-05-23T23:04:24.784Z,13.40
2023-05-23T23:07:46.448Z,13.40
2023-05-23T23:11:09.418Z,13.40
2023-05-23T23:14:31.056Z,13.40
2023-05-23T23:17:52.720Z,13.40
2023-05-23T23:21:14.357Z,13.40
2023-05-23T23:24:36.362Z,13.40
2023-05-23T23:27:59.409Z,13.40
2023-05-23T23:31:21.608Z,13.40
2023-05-23T23:34:43.321Z,13.40
2023-05-23T23:38:04.944Z,13.30
2023-05-23T23:41:26.862Z,13.40
2023-05-23T23:44:49.875Z,13.30
2023-05-23T23:48:11.504Z,13.30
2023-05-23T23:51:33.166Z,13.30
2023-05-23T23:54:54.848Z,13.30
2023-05-23T23:58:16.683Z,13.30
